createdAt,value
2019-01-29T00:00:50.849Z,4.97
2019-01-29T00:03:19.151Z,5.67
2019-01-29T00:05:47.325Z,4.90
2019-01-29T00:08:15.725Z,4.70
2019-01-29T00:10:43.861Z,4.63
2019-01-29T00:13:12.033Z,4.83
2019-01-29T00:15:41.233Z,5.13
2019-01-29T00:18:09.814Z,5.03
2019-01-29T00:20:38.245Z,5.63
2019-01-29T00:23:06.375Z,5.57
2019-01-29T00:25:34.563Z,5.07
2019-01-29T00:28:02.995Z,5.13
2019-01-29T00:30:33.184Z,4.70
2019-01-29T00:33:05.510Z,4.65
2019-01-29T00:35:33.754Z,4.00
2019-01-29T00:38:03.177Z,3.93
2019-01-29T00:40:31.378Z,3.80
2019-01-29T00:42:59.917Z,4.23
2019-01-29T00:45:28.802Z,4.13
2019-01-29T00:47:58.994Z,4.13
2019-01-29T00:50:27.112Z,3.63
2019-01-29T00:52:56.328Z,3.87
2019-01-29T00:55:24.516Z,4.30
2019-01-29T00:57:53.198Z,3.23
2019-01-29T01:00:24.171Z,3.50
2019-01-29T01:02:52.306Z,3.23
2019-01-29T01:05:20.483Z,3.83
2019-01-29T01:07:49.686Z,3.30
2019-01-29T01:10:19.073Z,3.47
2019-01-29T01:12:47.256Z,3.80
2019-01-29T01:15:16.128Z,3.50
2019-01-29T01:17:44.601Z,3.60
2019-01-29T01:20:14.624Z,3.40
2019-01-29T01:22:50.846Z,3.50
2019-01-29T01:25:13.018Z,3.70
2019-01-29T01:27:41.214Z,4.27
2019-01-29T01:30:11.718Z,3.73
2019-01-29T01:32:39.947Z,4.33
2019-01-29T01:35:08.099Z,3.73
2019-01-29T01:37:36.258Z,3.47
2019-01-29T01:40:06.758Z,3.73
2019-01-29T01:42:34.959Z,3.83
2019-01-29T01:45:03.465Z,3.97
2019-01-29T01:47:31.972Z,4.30
2019-01-29T01:50:00.438Z,4.27
2019-01-29T01:52:28.574Z,4.30
2019-01-29T01:54:57.273Z,4.37
2019-01-29T01:57:25.420Z,4.40
2019-01-29T01:59:53.973Z,4.50
2019-01-29T02:02:24.124Z,4.97
2019-01-29T02:04:52.295Z,4.87
2019-01-29T02:07:20.851Z,4.67
2019-01-29T02:09:49.717Z,4.97
2019-01-29T02:12:17.851Z,5.20
2019-01-29T02:14:46.035Z,5.03
2019-01-29T02:17:14.240Z,5.53
2019-01-29T02:19:42.424Z,5.07
2019-01-29T02:22:10.552Z,4.90
2019-01-29T02:24:40.789Z,5.10
2019-01-29T02:27:08.939Z,5.20
2019-01-29T02:29:37.153Z,5.07
2019-01-29T02:32:05.299Z,5.57
2019-01-29T02:34:33.537Z,5.50
2019-01-29T02:37:03.743Z,5.70
2019-01-29T02:39:31.974Z,5.13
2019-01-29T02:42:00.424Z,5.30
2019-01-29T02:44:28.634Z,5.27
2019-01-29T02:46:56.797Z,5.20
2019-01-29T02:49:24.972Z,5.67
2019-01-29T02:51:53.169Z,5.83
2019-01-29T02:54:21.303Z,5.40
2019-01-29T02:56:49.487Z,5.53
2019-01-29T02:59:17.683Z,4.90
2019-01-29T03:01:45.837Z,6.03
2019-01-29T03:04:14.004Z,5.90
2019-01-29T03:06:42.213Z,5.13
2019-01-29T03:09:10.357Z,5.73
2019-01-29T03:11:38.527Z,5.60
2019-01-29T03:14:06.718Z,5.70
2019-01-29T03:16:34.869Z,5.13
2019-01-29T03:19:04.057Z,5.50
2019-01-29T03:21:32.233Z,5.60
2019-01-29T03:24:00.677Z,6.13
2019-01-29T03:26:29.913Z,5.07
2019-01-29T03:28:58.094Z,5.17
2019-01-29T03:31:26.786Z,5.53
2019-01-29T03:33:55.867Z,5.83
2019-01-29T03:36:24.040Z,5.90
2019-01-29T03:38:52.212Z,5.50
2019-01-29T03:41:20.769Z,5.77
2019-01-29T03:43:49.974Z,5.27
2019-01-29T03:46:18.264Z,5.60
2019-01-29T03:48:47.452Z,5.70
2019-01-29T03:51:15.629Z,5.50
2019-01-29T03:53:43.797Z,5.03
2019-01-29T03:56:12.023Z,5.92
2019-01-29T03:58:40.406Z,5.70
2019-01-29T04:01:09.557Z,5.20
2019-01-29T04:03:37.720Z,5.63
2019-01-29T04:06:06.176Z,5.60
2019-01-29T04:08:34.447Z,5.10
2019-01-29T04:11:02.587Z,5.77
2019-01-29T04:13:31.019Z,5.40
2019-01-29T04:16:00.255Z,5.27
2019-01-29T04:18:32.536Z,5.30
2019-01-29T04:20:59.769Z,5.43
2019-01-29T04:23:27.937Z,5.00
2019-01-29T04:25:57.024Z,5.47
2019-01-29T04:28:25.483Z,5.33
2019-01-29T04:30:53.687Z,4.93
2019-01-29T04:33:22.931Z,5.50
2019-01-29T04:35:51.195Z,5.50
2019-01-29T04:38:19.330Z,5.50
2019-01-29T04:40:48.077Z,5.77
2019-01-29T04:43:16.345Z,6.07
2019-01-29T04:45:44.556Z,5.43
2019-01-29T04:48:12.779Z,5.50
2019-01-29T04:50:41.936Z,5.27
2019-01-29T04:53:10.192Z,5.27
2019-01-29T04:55:38.269Z,5.80
2019-01-29T04:58:06.461Z,5.27
2019-01-29T05:00:34.621Z,5.30
2019-01-29T05:03:02.802Z,5.30
2019-01-29T05:05:30.968Z,5.33
2019-01-29T05:07:59.380Z,5.17
2019-01-29T05:10:28.589Z,5.53
2019-01-29T05:12:56.717Z,5.43
2019-01-29T05:15:25.180Z,5.03
2019-01-29T05:17:54.422Z,5.10
2019-01-29T05:20:22.919Z,5.13
2019-01-29T05:22:53.606Z,5.50
2019-01-29T05:25:22.867Z,4.50
2019-01-29T05:27:51.074Z,5.37
2019-01-29T05:30:21.437Z,4.90
2019-01-29T05:32:49.864Z,4.63
2019-01-29T05:35:20.072Z,4.67
2019-01-29T05:37:48.177Z,4.30
2019-01-29T05:40:18.391Z,4.63
2019-01-29T05:42:46.685Z,5.30
2019-01-29T05:45:17.373Z,5.00
2019-01-29T05:47:45.590Z,5.07
2019-01-29T05:50:14.059Z,5.40
2019-01-29T05:52:42.261Z,5.03
2019-01-29T05:55:10.469Z,4.90
2019-01-29T05:57:38.699Z,4.50
2019-01-29T06:00:12.073Z,4.90
2019-01-29T06:02:41.586Z,4.47
2019-01-29T06:05:10.180Z,4.87
2019-01-29T06:07:38.333Z,5.07
2019-01-29T06:10:06.819Z,4.30
2019-01-29T06:12:40.732Z,4.47
2019-01-29T06:15:10.851Z,4.43
2019-01-29T06:17:39.027Z,4.83
2019-01-29T06:20:10.021Z,4.73
2019-01-29T06:22:39.443Z,4.17
2019-01-29T06:25:14.827Z,4.37
2019-01-29T06:27:44.415Z,4.17
2019-01-29T06:30:13.847Z,4.30
2019-01-29T06:32:42.265Z,4.20
2019-01-29T06:35:12.290Z,4.57
2019-01-29T06:37:40.500Z,4.10
2019-01-29T06:40:09.945Z,4.83
2019-01-29T06:42:39.113Z,4.53
2019-01-29T06:45:10.839Z,4.10
2019-01-29T06:47:39.028Z,5.57
2019-01-29T06:50:09.338Z,4.37
2019-01-29T06:52:37.562Z,4.30
2019-01-29T06:55:06.702Z,4.70
2019-01-29T06:57:34.995Z,4.70
2019-01-29T07:00:03.173Z,4.83
2019-01-29T07:02:31.619Z,5.17
2019-01-29T07:05:00.271Z,4.73
2019-01-29T07:07:28.390Z,4.97
2019-01-29T07:09:56.958Z,4.93
2019-01-29T07:12:25.154Z,4.80
2019-01-29T07:14:53.319Z,4.87
2019-01-29T07:17:26.042Z,4.17
2019-01-29T07:19:56.867Z,4.97
2019-01-29T07:22:25.023Z,4.77
2019-01-29T07:24:53.187Z,4.45
2019-01-29T07:27:22.407Z,5.23
2019-01-29T07:29:50.555Z,4.87
2019-01-29T07:32:19.051Z,5.40
2019-01-29T07:34:47.245Z,5.20
2019-01-29T07:37:21.781Z,5.00
2019-01-29T07:39:43.565Z,7.03
2019-01-29T07:42:11.725Z,5.10
2019-01-29T07:44:39.903Z,5.43
2019-01-29T07:47:10.058Z,5.83
2019-01-29T07:49:39.217Z,5.30
2019-01-29T07:52:07.402Z,5.50
2019-01-29T07:54:37.302Z,5.30
2019-01-29T07:57:06.588Z,5.20
2019-01-29T07:59:34.780Z,5.60
2019-01-29T08:02:02.970Z,5.27
2019-01-29T08:04:32.150Z,5.60
2019-01-29T08:07:00.325Z,4.93
2019-01-29T08:09:28.511Z,5.60
2019-01-29T08:11:56.677Z,5.50
2019-01-29T08:14:24.855Z,5.30
2019-01-29T08:16:53.048Z,5.63
2019-01-29T08:19:21.193Z,5.40
2019-01-29T08:21:49.375Z,5.13
2019-01-29T08:24:18.553Z,5.47
2019-01-29T08:26:48.362Z,5.43
2019-01-29T08:29:16.564Z,5.27
2019-01-29T08:31:44.737Z,5.20
2019-01-29T08:34:14.968Z,5.60
2019-01-29T08:36:47.280Z,6.67
2019-01-29T08:39:15.492Z,5.80
2019-01-29T08:41:43.667Z,5.57
2019-01-29T08:44:11.862Z,5.50
2019-01-29T08:46:40.616Z,5.10
2019-01-29T08:49:08.803Z,5.80
2019-01-29T08:51:37.340Z,5.50
2019-01-29T08:54:05.555Z,5.50
2019-01-29T08:56:33.733Z,5.70
2019-01-29T08:59:01.911Z,5.63
2019-01-29T09:01:30.441Z,5.27
2019-01-29T09:03:58.663Z,5.10
2019-01-29T09:06:26.874Z,5.40
2019-01-29T09:08:55.305Z,5.80
2019-01-29T09:11:24.511Z,5.47
2019-01-29T09:13:52.657Z,5.87
2019-01-29T09:16:20.847Z,5.40
2019-01-29T09:18:49.410Z,5.80
2019-01-29T09:21:17.617Z,5.87
2019-01-29T09:23:46.302Z,5.80
2019-01-29T09:26:14.867Z,5.93
2019-01-29T09:28:43.095Z,6.30
2019-01-29T09:31:11.229Z,5.80
2019-01-29T09:33:39.406Z,5.63
2019-01-29T09:36:07.586Z,6.30
2019-01-29T09:38:35.749Z,7.90
2019-01-29T09:41:03.929Z,6.77
2019-01-29T09:43:32.098Z,6.73
2019-01-29T09:46:00.663Z,8.30
2019-01-29T09:48:34.807Z,7.87
2019-01-29T09:51:02.961Z,8.37
2019-01-29T09:53:31.125Z,7.23
2019-01-29T09:55:59.318Z,9.13
2019-01-29T09:58:27.478Z,7.87
2019-01-29T10:00:55.664Z,8.53
2019-01-29T10:03:24.872Z,6.60
2019-01-29T10:05:53.012Z,7.40
2019-01-29T10:08:21.200Z,6.70
2019-01-29T10:10:49.418Z,6.40
2019-01-29T10:13:18.460Z,6.13
2019-01-29T10:15:47.495Z,6.50
2019-01-29T10:18:15.628Z,6.27
2019-01-29T10:20:43.817Z,5.83
2019-01-29T10:23:11.982Z,5.33
2019-01-29T10:25:41.176Z,4.60
2019-01-29T10:28:09.359Z,4.60
2019-01-29T10:30:37.526Z,4.10
2019-01-29T10:33:05.685Z,4.93
2019-01-29T10:35:34.165Z,4.70
2019-01-29T10:38:02.361Z,4.83
2019-01-29T10:40:30.525Z,4.43
2019-01-29T10:42:58.707Z,4.30
2019-01-29T10:45:27.692Z,4.33
2019-01-29T10:47:55.878Z,4.67
2019-01-29T10:50:25.257Z,4.20
2019-01-29T10:52:53.599Z,4.33
2019-01-29T10:55:21.820Z,4.00
2019-01-29T10:57:50.386Z,3.87
2019-01-29T11:00:27.866Z,3.60
2019-01-29T11:02:56.998Z,3.70
2019-01-29T11:05:25.136Z,3.63
2019-01-29T11:07:54.013Z,3.53
2019-01-29T11:10:22.218Z,3.53
2019-01-29T11:12:50.404Z,3.47
2019-01-29T11:15:24.202Z,3.52
2019-01-29T11:17:52.330Z,3.77
2019-01-29T11:20:20.536Z,3.80
2019-01-29T11:22:48.929Z,4.00
2019-01-29T11:25:19.502Z,3.60
2019-01-29T11:27:47.650Z,3.80
2019-01-29T11:30:17.754Z,3.07
2019-01-29T11:32:46.303Z,4.30
2019-01-29T11:35:14.515Z,3.70
2019-01-29T11:37:42.665Z,3.80
2019-01-29T11:40:14.002Z,3.63
2019-01-29T11:42:42.183Z,3.73
2019-01-29T11:45:14.048Z,3.77
2019-01-29T11:47:42.231Z,3.40
2019-01-29T11:50:12.466Z,3.60
2019-01-29T11:52:40.649Z,3.57
2019-01-29T11:55:08.863Z,3.50
2019-01-29T11:57:37.481Z,4.03
2019-01-29T12:00:07.394Z,3.40
2019-01-29T12:02:35.567Z,3.63
2019-01-29T12:05:04.054Z,3.60
2019-01-29T12:07:32.251Z,3.30
2019-01-29T12:10:01.413Z,3.30
2019-01-29T12:12:29.920Z,3.53
2019-01-29T12:14:58.079Z,4.07
2019-01-29T12:17:26.236Z,3.73
2019-01-29T12:19:54.705Z,3.97
2019-01-29T12:22:22.900Z,4.00
2019-01-29T12:24:52.115Z,3.93
2019-01-29T12:27:21.590Z,3.77
2019-01-29T12:29:50.805Z,4.10
2019-01-29T12:32:38.346Z,4.27
2019-01-29T12:35:07.004Z,3.93
2019-01-29T12:37:38.256Z,4.37
2019-01-29T12:40:06.662Z,3.73
2019-01-29T12:42:34.815Z,4.27
2019-01-29T12:45:03.007Z,3.90
2019-01-29T12:47:31.160Z,4.30
2019-01-29T12:49:59.328Z,4.35
2019-01-29T12:52:39.157Z,3.93
2019-01-29T12:55:07.720Z,3.90
2019-01-29T12:57:36.269Z,3.87
2019-01-29T13:00:06.339Z,4.20
2019-01-29T13:02:34.825Z,3.27
2019-01-29T13:05:03.340Z,3.90
2019-01-29T13:07:31.539Z,3.03
2019-01-29T13:09:59.688Z,5.30
2019-01-29T13:12:27.846Z,8.03
2019-01-29T13:14:56.379Z,4.90
2019-01-29T13:17:24.510Z,6.30
2019-01-29T13:19:53.001Z,4.53
2019-01-29T13:22:21.559Z,3.40
2019-01-29T13:24:50.129Z,3.50
2019-01-29T13:27:18.445Z,3.47
2019-01-29T13:29:46.873Z,3.47
2019-01-29T13:32:15.083Z,3.33
2019-01-29T13:34:44.312Z,3.30
2019-01-29T13:37:12.690Z,3.30
2019-01-29T13:39:40.816Z,3.60
2019-01-29T13:42:10.034Z,3.90
2019-01-29T13:44:38.192Z,3.90
2019-01-29T13:47:06.516Z,3.60
2019-01-29T13:49:34.663Z,3.47
2019-01-29T13:52:03.227Z,3.90
2019-01-29T13:54:31.759Z,4.00
2019-01-29T13:56:59.971Z,4.60
2019-01-29T13:59:28.223Z,4.40
2019-01-29T14:01:57.830Z,7.53
2019-01-29T14:04:25.796Z,5.60
2019-01-29T14:06:54.015Z,4.70
2019-01-29T14:09:22.171Z,5.13
2019-01-29T14:11:50.612Z,5.67
2019-01-29T14:14:18.850Z,10.37
2019-01-29T14:16:47.047Z,9.77
2019-01-29T14:19:15.169Z,5.20
2019-01-29T14:21:43.356Z,4.00
2019-01-29T14:24:11.531Z,4.60
2019-01-29T14:26:47.560Z,4.37
2019-01-29T14:29:09.467Z,3.73
2019-01-29T14:31:37.678Z,3.58
2019-01-29T14:34:05.888Z,3.40
2019-01-29T14:36:34.036Z,3.50
2019-01-29T14:39:30.297Z,3.53
2019-01-29T14:41:58.761Z,3.60
2019-01-29T14:44:49.442Z,3.80
2019-01-29T14:47:17.623Z,4.30
2019-01-29T14:49:45.804Z,4.20
2019-01-29T14:52:13.962Z,4.20
2019-01-29T14:54:44.518Z,4.03
2019-01-29T14:57:12.625Z,4.10
2019-01-29T14:59:40.848Z,7.10
2019-01-29T15:02:09.293Z,4.33
2019-01-29T15:04:38.904Z,3.70
2019-01-29T15:07:06.015Z,3.70
2019-01-29T15:09:34.559Z,3.60
2019-01-29T15:12:03.355Z,3.60
2019-01-29T15:14:31.579Z,3.33
2019-01-29T15:17:17.260Z,3.70
2019-01-29T15:19:45.479Z,3.70
2019-01-29T15:22:17.157Z,3.80
2019-01-29T15:24:45.312Z,3.80
2019-01-29T15:27:13.788Z,3.80
2019-01-29T15:29:42.345Z,3.50
2019-01-29T15:32:10.552Z,4.80
2019-01-29T15:34:39.007Z,5.30
2019-01-29T15:37:07.416Z,5.63
2019-01-29T15:39:35.855Z,3.83
2019-01-29T15:42:04.107Z,4.30
2019-01-29T15:44:32.376Z,3.77
2019-01-29T15:47:01.521Z,3.63
2019-01-29T15:49:29.711Z,3.20
2019-01-29T15:51:57.876Z,3.77
2019-01-29T15:54:30.339Z,3.93
2019-01-29T15:57:13.828Z,3.57
2019-01-29T15:59:42.619Z,8.47
2019-01-29T16:02:03.816Z,5.10
2019-01-29T16:04:31.940Z,6.60
2019-01-29T16:07:00.120Z,5.40
2019-01-29T16:09:29.300Z,5.53
2019-01-29T16:11:57.788Z,5.20
2019-01-29T16:14:25.969Z,5.00
2019-01-29T16:16:54.148Z,5.90
2019-01-29T16:19:23.573Z,3.30
2019-01-29T16:21:51.737Z,3.07
2019-01-29T16:24:32.403Z,5.42
2019-01-29T16:27:06.719Z,6.13
2019-01-29T16:29:29.137Z,9.53
2019-01-29T16:31:57.309Z,8.40
2019-01-29T16:34:25.490Z,5.13
2019-01-29T16:36:54.052Z,4.40
2019-01-29T16:39:26.605Z,2.97
2019-01-29T16:41:54.732Z,2.80
2019-01-29T16:44:23.411Z,2.90
2019-01-29T16:46:51.590Z,3.30
2019-01-29T16:49:19.754Z,4.17
2019-01-29T16:51:47.949Z,3.53
2019-01-29T16:54:16.103Z,3.13
2019-01-29T16:56:44.284Z,3.40
2019-01-29T16:59:12.412Z,4.17
2019-01-29T17:01:40.937Z,3.60
2019-01-29T17:04:09.005Z,5.53
2019-01-29T17:06:41.481Z,6.60
2019-01-29T17:09:10.820Z,6.80
2019-01-29T17:11:40.025Z,6.40
2019-01-29T17:14:08.142Z,6.67
2019-01-29T17:16:36.316Z,6.43
2019-01-29T17:19:04.580Z,6.30
2019-01-29T17:21:32.768Z,12.43
2019-01-29T17:24:02.007Z,8.57
2019-01-29T17:26:31.164Z,5.57
2019-01-29T17:28:58.381Z,5.50
2019-01-29T17:31:26.588Z,5.53
2019-01-29T17:33:55.276Z,5.77
2019-01-29T17:36:23.488Z,7.20
2019-01-29T17:38:51.621Z,7.78
2019-01-29T17:41:19.778Z,7.10
2019-01-29T17:43:47.902Z,6.90
2019-01-29T17:46:16.030Z,7.40
2019-01-29T17:48:44.216Z,9.93
2019-01-29T17:51:12.598Z,8.87
2019-01-29T17:53:40.747Z,8.67
2019-01-29T17:56:09.233Z,11.57
2019-01-29T17:58:37.729Z,9.97
2019-01-29T18:01:05.887Z,9.00
2019-01-29T18:03:34.072Z,8.03
2019-01-29T18:06:02.240Z,8.17
2019-01-29T18:08:30.427Z,7.70
2019-01-29T18:10:58.596Z,6.40
2019-01-29T18:13:26.772Z,6.33
2019-01-29T18:15:55.666Z,6.67
2019-01-29T18:18:23.814Z,7.57
2019-01-29T18:20:52.282Z,7.53
2019-01-29T18:23:20.877Z,6.60
2019-01-29T18:25:50.128Z,6.40
2019-01-29T18:28:18.246Z,6.77
2019-01-29T18:30:46.458Z,6.70
2019-01-29T18:33:15.622Z,7.37
2019-01-29T18:35:56.359Z,6.23
2019-01-29T18:38:25.500Z,6.27
2019-01-29T18:40:55.612Z,7.30
2019-01-29T18:43:25.097Z,6.17
2019-01-29T18:45:53.400Z,6.87
2019-01-29T18:48:21.585Z,6.80
2019-01-29T18:50:49.749Z,6.00
2019-01-29T18:53:18.320Z,6.70
2019-01-29T18:55:46.885Z,5.83
2019-01-29T18:58:15.432Z,6.10
2019-01-29T19:00:43.156Z,5.73
2019-01-29T19:03:11.261Z,5.67
2019-01-29T19:05:39.424Z,6.17
2019-01-29T19:08:07.640Z,7.23
2019-01-29T19:10:35.858Z,7.90
2019-01-29T19:13:04.014Z,9.83
2019-01-29T19:15:32.589Z,7.30
2019-01-29T19:18:01.174Z,7.47
2019-01-29T19:20:29.401Z,7.13
2019-01-29T19:22:58.222Z,7.87
2019-01-29T19:25:26.431Z,6.57
2019-01-29T19:27:54.591Z,6.67
2019-01-29T19:30:27.696Z,6.00
2019-01-29T19:32:55.933Z,7.83
2019-01-29T19:35:24.185Z,6.50
2019-01-29T19:37:53.327Z,5.40
2019-01-29T19:40:21.527Z,6.87
2019-01-29T19:42:49.685Z,6.37
2019-01-29T19:45:22.942Z,6.37
2019-01-29T19:47:51.166Z,6.27
2019-01-29T19:50:21.262Z,6.73
2019-01-29T19:52:50.514Z,6.27
2019-01-29T19:55:18.648Z,6.00
2019-01-29T19:57:46.792Z,5.90
2019-01-29T20:00:26.440Z,7.50
2019-01-29T20:02:57.058Z,6.03
2019-01-29T20:05:23.824Z,5.67
2019-01-29T20:07:51.995Z,6.40
2019-01-29T20:10:20.473Z,7.10
2019-01-29T20:12:48.632Z,5.87
2019-01-29T20:15:17.507Z,5.67
2019-01-29T20:17:46.519Z,7.27
2019-01-29T20:20:21.642Z,6.17
2019-01-29T20:22:49.838Z,7.30
2019-01-29T20:25:17.986Z,6.80
2019-01-29T20:27:46.225Z,6.23
2019-01-29T20:30:17.083Z,6.80
2019-01-29T20:32:53.142Z,6.80
2019-01-29T20:35:13.763Z,6.33
2019-01-29T20:37:41.968Z,7.87
2019-01-29T20:40:12.463Z,9.10
2019-01-29T20:42:40.652Z,8.07
2019-01-29T20:45:09.631Z,14.47
2019-01-29T20:47:37.807Z,8.47
2019-01-29T20:50:09.663Z,10.40
2019-01-29T20:52:37.846Z,13.23
2019-01-29T20:55:06.818Z,10.83
2019-01-29T20:57:35.015Z,22.03
2019-01-29T21:00:03.484Z,7.80
2019-01-29T21:02:31.681Z,9.73
2019-01-29T21:04:59.850Z,8.47
2019-01-29T21:07:28.003Z,6.13
2019-01-29T21:09:56.575Z,5.90
2019-01-29T21:12:24.769Z,6.20
2019-01-29T21:14:52.952Z,6.37
2019-01-29T21:17:21.481Z,9.20
2019-01-29T21:19:50.645Z,15.57
2019-01-29T21:22:20.853Z,6.90
2019-01-29T21:24:50.732Z,5.72
2019-01-29T21:27:18.945Z,5.33
2019-01-29T21:29:47.110Z,6.03
2019-01-29T21:32:15.772Z,7.50
2019-01-29T21:35:03.333Z,6.20
2019-01-29T21:37:31.858Z,6.63
2019-01-29T21:40:00.288Z,6.37
2019-01-29T21:42:28.235Z,6.50
2019-01-29T21:44:56.702Z,6.37
2019-01-29T21:47:25.286Z,6.93
2019-01-29T21:49:53.800Z,7.70
2019-01-29T21:52:21.980Z,7.07
2019-01-29T21:54:50.151Z,6.40
2019-01-29T21:57:18.578Z,6.57
2019-01-29T21:59:47.204Z,7.20
2019-01-29T22:02:15.668Z,7.47
2019-01-29T22:04:43.880Z,7.43
2019-01-29T22:07:12.412Z,8.55
2019-01-29T22:09:40.893Z,8.73
2019-01-29T22:12:09.080Z,7.87
2019-01-29T22:14:37.461Z,7.87
2019-01-29T22:17:06.291Z,7.10
2019-01-29T22:19:34.780Z,7.57
2019-01-29T22:22:02.953Z,9.43
2019-01-29T22:24:31.089Z,8.80
2019-01-29T22:26:59.262Z,9.73
2019-01-29T22:29:31.627Z,8.93
2019-01-29T22:31:59.806Z,8.50
2019-01-29T22:34:29.283Z,9.50
2019-01-29T22:36:57.513Z,9.03
2019-01-29T22:39:26.262Z,8.63
2019-01-29T22:41:54.436Z,8.50
2019-01-29T22:44:22.607Z,8.87
2019-01-29T22:46:50.788Z,8.40
2019-01-29T22:49:18.966Z,8.27
2019-01-29T22:51:47.975Z,8.63
2019-01-29T22:54:16.449Z,9.17
2019-01-29T22:56:44.623Z,9.37
2019-01-29T22:59:12.960Z,9.17
2019-01-29T23:01:42.021Z,9.70
2019-01-29T23:04:18.764Z,8.63
2019-01-29T23:07:02.040Z,8.63
2019-01-29T23:09:30.312Z,9.43
2019-01-29T23:11:58.542Z,10.90
2019-01-29T23:14:27.519Z,11.33
2019-01-29T23:16:55.697Z,10.47
2019-01-29T23:19:24.334Z,9.85
2019-01-29T23:21:53.110Z,9.70
2019-01-29T23:24:21.322Z,9.80
2019-01-29T23:26:49.578Z,9.70
2019-01-29T23:29:18.311Z,9.13
2019-01-29T23:31:47.476Z,9.97
2019-01-29T23:34:15.805Z,9.53
2019-01-29T23:36:48.648Z,10.43
2019-01-29T23:39:16.744Z,10.97
2019-01-29T23:41:45.315Z,10.43
2019-01-29T23:44:13.617Z,9.90
2019-01-29T23:46:41.997Z,9.60
2019-01-29T23:49:10.646Z,10.20
2019-01-29T23:51:39.733Z,9.43
2019-01-29T23:54:08.392Z,10.17
2019-01-29T23:56:36.738Z,10.10
2019-01-29T23:59:05.681Z,10.37
